createdAt,value
2022-07-30T00:01:21.127Z,16.90
2022-07-30T00:03:49.961Z,16.90
2022-07-30T00:06:20.218Z,16.80
2022-07-30T00:08:52.441Z,16.80
2022-07-30T00:11:27.656Z,16.70
2022-07-30T00:13:57.153Z,16.70
2022-07-30T00:16:25.832Z,16.70
2022-07-30T00:18:54.509Z,16.70
2022-07-30T00:21:38.689Z,16.70
2022-07-30T00:24:09.722Z,16.60
2022-07-30T00:26:40.957Z,16.60
2022-07-30T00:29:10.201Z,16.60
2022-07-30T00:31:38.815Z,16.50
2022-07-30T00:34:07.509Z,16.50
2022-07-30T00:36:36.433Z,16.50
2022-07-30T00:39:10.207Z,16.50
2022-07-30T00:41:55.203Z,16.50
2022-07-30T00:44:23.910Z,16.40
2022-07-30T00:46:52.692Z,16.40
2022-07-30T00:49:21.725Z,16.40
2022-07-30T00:51:50.962Z,16.40
2022-07-30T00:54:21.364Z,16.40
2022-07-30T00:56:50.639Z,16.40
2022-07-30T00:59:19.312Z,16.40
2022-07-30T01:01:48.059Z,16.30
2022-07-30T01:04:16.742Z,16.30
2022-07-30T01:06:48.752Z,16.30
2022-07-30T01:09:17.320Z,16.20
2022-07-30T01:11:47.497Z,16.20
2022-07-30T01:14:16.508Z,16.20
2022-07-30T01:16:45.384Z,16.10
2022-07-30T01:19:38.673Z,16.10
2022-07-30T01:22:14.777Z,16.10
2022-07-30T01:24:48.125Z,16.10
2022-07-30T01:27:20.731Z,16.10
2022-07-30T01:29:51.770Z,16.00
2022-07-30T01:32:22.117Z,16.00
2022-07-30T01:34:51.982Z,15.90
2022-07-30T01:37:23.855Z,16.00
2022-07-30T01:39:54.362Z,15.80
2022-07-30T01:42:29.304Z,16.00
2022-07-30T01:44:59.556Z,15.90
2022-07-30T01:47:29.885Z,15.90
2022-07-30T01:49:59.705Z,15.90
2022-07-30T01:52:31.857Z,15.90
2022-07-30T01:55:03.219Z,15.90
2022-07-30T01:57:36.613Z,15.80
2022-07-30T02:00:08.057Z,15.80
2022-07-30T02:02:46.231Z,15.80
2022-07-30T02:05:16.766Z,15.80
2022-07-30T02:07:51.204Z,15.80
2022-07-30T02:10:32.192Z,15.70
2022-07-30T02:13:08.489Z,15.70
2022-07-30T02:15:44.321Z,15.70
2022-07-30T02:18:18.124Z,15.70
2022-07-30T02:20:59.229Z,15.70
2022-07-30T02:23:29.745Z,15.60
2022-07-30T02:26:00.741Z,15.60
2022-07-30T02:28:33.613Z,15.60
2022-07-30T02:31:02.837Z,15.60
2022-07-30T02:33:50.458Z,15.70
2022-07-30T02:36:20.882Z,15.60
2022-07-30T02:38:51.719Z,15.50
2022-07-30T02:41:23.274Z,15.60
2022-07-30T02:43:55.023Z,15.50
2022-07-30T02:46:26.041Z,15.60
2022-07-30T02:49:25.169Z,15.50
2022-07-30T02:51:55.928Z,15.50
2022-07-30T02:54:26.327Z,15.50
2022-07-30T02:56:57.305Z,15.50
2022-07-30T02:59:30.115Z,15.50
2022-07-30T03:02:00.064Z,15.40
2022-07-30T03:04:30.376Z,15.40
2022-07-30T03:07:04.830Z,15.40
2022-07-30T03:09:51.362Z,15.40
2022-07-30T03:12:22.895Z,15.40
2022-07-30T03:14:55.091Z,15.40
2022-07-30T03:17:26.713Z,15.30
2022-07-30T03:19:57.074Z,15.40
2022-07-30T03:22:31.305Z,15.30
2022-07-30T03:25:03.331Z,15.30
2022-07-30T03:27:33.189Z,15.20
2022-07-30T03:30:04.108Z,15.20
2022-07-30T03:32:33.430Z,15.20
2022-07-30T03:35:06.605Z,15.20
2022-07-30T03:37:39.323Z,15.20
2022-07-30T03:40:10.112Z,15.10
2022-07-30T03:42:39.925Z,15.20
2022-07-30T03:45:13.665Z,15.10
2022-07-30T03:47:44.238Z,15.10
2022-07-30T03:50:15.464Z,15.10
2022-07-30T03:52:44.897Z,15.10
2022-07-30T03:55:18.346Z,15.00
2022-07-30T03:57:52.895Z,15.00
2022-07-30T04:00:28.994Z,15.00
2022-07-30T04:02:57.812Z,15.00
2022-07-30T04:05:48.786Z,15.00
2022-07-30T04:08:17.837Z,15.00
2022-07-30T04:10:49.160Z,15.00
2022-07-30T04:13:40.967Z,15.00
2022-07-30T04:16:39.618Z,15.00
2022-07-30T04:19:22.812Z,15.00
2022-07-30T04:21:54.056Z,15.00
2022-07-30T04:24:23.854Z,15.00
2022-07-30T04:26:53.591Z,15.00
2022-07-30T04:29:24.730Z,15.00
2022-07-30T04:31:56.154Z,15.00
2022-07-30T04:34:30.588Z,15.00
2022-07-30T04:36:59.484Z,15.00
2022-07-30T04:39:31.046Z,15.10
2022-07-30T04:41:59.618Z,15.10
2022-07-30T04:44:39.835Z,15.10
2022-07-30T04:47:25.823Z,15.10
2022-07-30T04:50:13.399Z,15.20
2022-07-30T04:52:44.356Z,15.20
2022-07-30T04:55:17.645Z,15.30
2022-07-30T04:57:51.076Z,15.30
2022-07-30T05:00:20.208Z,15.30
2022-07-30T05:02:54.725Z,15.40
2022-07-30T05:05:24.196Z,15.40
2022-07-30T05:07:54.336Z,15.50
2022-07-30T05:10:23.681Z,15.50
2022-07-30T05:12:53.170Z,15.60
2022-07-30T05:15:36.170Z,15.60
2022-07-30T05:18:09.615Z,15.60
2022-07-30T05:20:42.065Z,15.70
2022-07-30T05:23:21.508Z,15.80
2022-07-30T05:26:03.327Z,15.90
2022-07-30T05:28:37.942Z,16.00
2022-07-30T05:31:13.356Z,16.00
2022-07-30T05:33:50.688Z,16.20
2022-07-30T05:36:21.353Z,16.20
2022-07-30T05:38:50.208Z,16.30
2022-07-30T05:41:41.605Z,16.40
2022-07-30T05:44:23.877Z,16.40
2022-07-30T05:46:53.418Z,16.60
2022-07-30T05:49:23.899Z,16.70
2022-07-30T05:51:54.326Z,16.80
2022-07-30T05:54:24.745Z,16.90
2022-07-30T05:57:12.785Z,16.90
2022-07-30T05:59:42.123Z,17.10
2022-07-30T06:02:11.736Z,17.10
2022-07-30T06:05:05.871Z,17.30
2022-07-30T06:07:35.884Z,17.40
2022-07-30T06:10:06.729Z,17.50
2022-07-30T06:12:35.364Z,17.50
2022-07-30T06:15:05.448Z,17.70
2022-07-30T06:17:42.888Z,17.80
2022-07-30T06:20:27.760Z,17.90
2022-07-30T06:23:16.805Z,18.00
2022-07-30T06:26:11.435Z,18.20
2022-07-30T06:28:40.060Z,18.30
2022-07-30T06:31:17.522Z,18.40
2022-07-30T06:33:46.167Z,18.50
2022-07-30T06:36:17.187Z,18.60
2022-07-30T06:38:55.124Z,18.70
2022-07-30T06:41:36.263Z,18.80
2022-07-30T06:44:05.927Z,18.90
2022-07-30T06:46:54.537Z,18.90
2022-07-30T06:49:27.122Z,19.00
2022-07-30T06:51:57.603Z,19.10
2022-07-30T06:54:26.351Z,19.10
2022-07-30T06:57:10.327Z,19.20
2022-07-30T06:59:56.279Z,19.30
2022-07-30T07:02:42.682Z,19.40
2022-07-30T07:05:14.644Z,19.50
2022-07-30T07:07:58.850Z,19.70
2022-07-30T07:10:32.279Z,19.90
2022-07-30T07:13:19.038Z,20.00
2022-07-30T07:15:47.605Z,20.20
2022-07-30T07:18:20.640Z,20.40
2022-07-30T07:20:54.544Z,20.60
2022-07-30T07:23:25.059Z,20.80
2022-07-30T07:25:56.877Z,21.00
2022-07-30T07:28:33.270Z,21.00
2022-07-30T07:31:03.156Z,20.90
2022-07-30T07:33:32.056Z,20.80
2022-07-30T07:36:00.701Z,20.80
2022-07-30T07:38:36.872Z,20.90
2022-07-30T07:41:06.418Z,21.10
2022-07-30T07:43:35.809Z,21.20
2022-07-30T07:46:04.542Z,21.40
2022-07-30T07:48:35.494Z,21.50
2022-07-30T07:51:47.323Z,21.70
2022-07-30T07:54:22.029Z,21.70
2022-07-30T07:56:52.995Z,21.60
2022-07-30T07:59:40.042Z,21.40
2022-07-30T08:02:13.103Z,21.40
2022-07-30T08:04:53.926Z,21.30
2022-07-30T08:07:51.794Z,21.20
2022-07-30T08:10:40.659Z,21.20
2022-07-30T08:13:52.729Z,21.30
2022-07-30T08:16:39.917Z,21.50
2022-07-30T08:19:12.131Z,21.60
2022-07-30T08:21:44.072Z,21.70
2022-07-30T08:24:12.773Z,21.80
2022-07-30T08:26:43.803Z,21.90
2022-07-30T08:29:16.964Z,22.00
2022-07-30T08:31:46.609Z,22.10
2022-07-30T08:34:15.675Z,22.20
2022-07-30T08:36:45.444Z,22.30
2022-07-30T08:39:14.026Z,22.40
2022-07-30T08:41:44.642Z,22.50
2022-07-30T08:44:13.812Z,22.60
2022-07-30T08:46:47.001Z,22.70
2022-07-30T08:49:51.502Z,22.80
2022-07-30T08:52:24.963Z,22.90
2022-07-30T08:55:02.502Z,23.00
2022-07-30T08:57:34.480Z,23.10
2022-07-30T09:00:07.055Z,23.20
2022-07-30T09:02:35.785Z,23.30
2022-07-30T09:05:10.424Z,23.30
2022-07-30T09:07:40.016Z,23.40
2022-07-30T09:10:13.488Z,23.50
2022-07-30T09:12:46.773Z,23.70
2022-07-30T09:15:17.197Z,23.70
2022-07-30T09:17:51.474Z,23.90
2022-07-30T09:20:21.637Z,24.00
2022-07-30T09:22:52.564Z,24.20
2022-07-30T09:25:42.254Z,24.40
2022-07-30T09:28:32.965Z,24.60
2022-07-30T09:31:16.986Z,24.80
2022-07-30T09:34:04.218Z,25.00
2022-07-30T09:36:51.256Z,25.20
2022-07-30T09:39:40.104Z,25.30
2022-07-30T09:42:28.244Z,25.40
2022-07-30T09:45:12.103Z,25.50
2022-07-30T09:47:45.282Z,25.60
2022-07-30T09:50:29.552Z,25.70
2022-07-30T09:55:58.157Z,25.70
2022-07-30T09:58:39.596Z,25.70
2022-07-30T10:01:11.931Z,25.80
2022-07-30T10:03:59.172Z,25.90
2022-07-30T10:07:01.880Z,26.00
2022-07-30T10:09:45.283Z,26.00
2022-07-30T10:12:16.884Z,26.10
2022-07-30T10:14:50.566Z,26.30
2022-07-30T10:17:23.057Z,26.40
2022-07-30T10:20:17.791Z,26.50
2022-07-30T10:22:50.554Z,26.60
2022-07-30T10:25:20.765Z,26.70
2022-07-30T10:28:10.437Z,26.80
2022-07-30T10:30:40.538Z,26.90
2022-07-30T10:33:34.266Z,27.00
2022-07-30T10:36:02.528Z,27.20
2022-07-30T10:38:34.092Z,27.20
2022-07-30T10:41:16.172Z,27.30
2022-07-30T10:44:07.454Z,27.30
2022-07-30T10:46:50.930Z,27.50
2022-07-30T10:49:20.984Z,27.60
2022-07-30T10:51:51.408Z,27.80
2022-07-30T10:54:41.918Z,27.90
2022-07-30T10:57:15.288Z,27.90
2022-07-30T11:00:15.541Z,27.80
2022-07-30T11:03:19.086Z,27.70
2022-07-30T11:05:51.595Z,27.50
2022-07-30T11:08:36.230Z,27.50
2022-07-30T11:11:19.835Z,27.40
2022-07-30T11:13:57.536Z,27.40
2022-07-30T11:16:48.239Z,27.40
2022-07-30T11:19:55.086Z,27.50
2022-07-30T11:22:27.252Z,27.60
2022-07-30T11:24:56.726Z,27.70
2022-07-30T11:27:41.475Z,27.90
2022-07-30T11:30:32.787Z,28.10
2022-07-30T11:33:33.223Z,28.30
2022-07-30T11:36:24.403Z,28.50
2022-07-30T11:39:03.668Z,28.60
2022-07-30T11:41:35.632Z,28.70
2022-07-30T11:44:31.288Z,28.90
2022-07-30T11:47:00.343Z,29.00
2022-07-30T11:49:36.384Z,29.10
2022-07-30T11:52:05.324Z,29.30
2022-07-30T11:54:51.358Z,29.40
2022-07-30T11:57:19.885Z,29.60
2022-07-30T11:59:55.366Z,29.80
2022-07-30T12:02:28.086Z,29.80
2022-07-30T12:04:56.749Z,29.90
2022-07-30T12:07:25.492Z,30.10
2022-07-30T12:10:12.491Z,30.30
2022-07-30T12:12:48.673Z,30.50
2022-07-30T12:15:31.699Z,30.60
2022-07-30T12:20:55.030Z,30.80
2022-07-30T12:23:26.720Z,30.60
2022-07-30T12:25:57.138Z,30.30
2022-07-30T12:28:28.849Z,30.00
2022-07-30T12:30:58.938Z,29.80
2022-07-30T12:33:28.038Z,29.60
2022-07-30T12:35:57.941Z,29.50
2022-07-30T12:38:42.066Z,29.40
2022-07-30T12:41:26.228Z,29.50
2022-07-30T12:43:58.074Z,29.50
2022-07-30T12:46:28.645Z,29.50
2022-07-30T12:49:06.927Z,29.50
2022-07-30T12:51:59.935Z,29.60
2022-07-30T12:54:29.989Z,29.80
2022-07-30T12:57:02.099Z,29.70
2022-07-30T12:59:32.349Z,29.60
2022-07-30T13:02:01.153Z,29.50
2022-07-30T13:04:31.569Z,29.30
2022-07-30T13:07:07.973Z,29.10
2022-07-30T13:09:36.711Z,29.10
2022-07-30T13:12:07.682Z,29.10
2022-07-30T13:14:36.339Z,29.00
2022-07-30T13:17:06.091Z,28.90
2022-07-30T13:19:35.189Z,28.80
2022-07-30T13:22:03.882Z,28.80
2022-07-30T13:24:34.234Z,28.90
2022-07-30T13:27:03.166Z,29.00
2022-07-30T13:29:33.435Z,29.20
2022-07-30T13:32:01.989Z,29.50
2022-07-30T13:34:30.727Z,29.80
2022-07-30T13:36:59.481Z,30.20
2022-07-30T13:39:28.208Z,30.40
2022-07-30T13:41:56.734Z,30.70
2022-07-30T13:44:25.274Z,31.10
2022-07-30T13:46:58.702Z,31.40
2022-07-30T13:49:30.241Z,31.60
2022-07-30T13:51:59.373Z,32.00
2022-07-30T13:54:29.257Z,32.30
2022-07-30T13:56:57.775Z,32.30
2022-07-30T13:59:26.368Z,32.00
2022-07-30T14:01:57.036Z,31.50
2022-07-30T14:04:25.624Z,31.00
2022-07-30T14:06:54.214Z,30.50
2022-07-30T14:09:22.688Z,30.40
2022-07-30T14:11:51.287Z,30.50
2022-07-30T14:14:19.903Z,30.60
2022-07-30T14:16:50.696Z,30.50
2022-07-30T14:19:24.598Z,30.30
2022-07-30T14:21:54.027Z,30.00
2022-07-30T14:24:23.627Z,29.60
2022-07-30T14:26:57.351Z,29.20
2022-07-30T14:29:27.129Z,28.90
2022-07-30T14:31:56.194Z,28.70
2022-07-30T14:34:26.094Z,28.50
2022-07-30T14:36:54.685Z,28.40
2022-07-30T14:39:23.194Z,28.30
2022-07-30T14:41:53.604Z,28.20
2022-07-30T14:44:25.045Z,28.10
2022-07-30T14:46:53.787Z,28.00
2022-07-30T14:49:22.820Z,27.90
2022-07-30T14:51:53.909Z,27.80
2022-07-30T14:54:22.785Z,27.60
2022-07-30T14:56:56.236Z,27.50
2022-07-30T14:59:27.753Z,27.40
2022-07-30T15:01:56.992Z,27.20
2022-07-30T15:04:25.596Z,27.10
2022-07-30T15:06:55.468Z,26.90
2022-07-30T15:09:24.054Z,26.70
2022-07-30T15:12:09.848Z,26.70
2022-07-30T15:14:39.976Z,26.80
2022-07-30T15:17:10.040Z,27.00
2022-07-30T15:19:49.334Z,27.20
2022-07-30T15:22:20.999Z,27.60
2022-07-30T15:24:49.806Z,27.90
2022-07-30T15:27:18.390Z,28.10
2022-07-30T15:29:46.961Z,28.20
2022-07-30T15:32:16.492Z,28.20
2022-07-30T15:34:45.473Z,28.30
2022-07-30T15:37:15.499Z,28.30
2022-07-30T15:39:45.439Z,28.40
2022-07-30T15:42:15.068Z,28.50
2022-07-30T15:44:48.862Z,28.50
2022-07-30T15:47:17.771Z,28.60
2022-07-30T15:49:46.406Z,28.70
2022-07-30T15:52:15.498Z,28.90
2022-07-30T15:54:45.583Z,28.90
2022-07-30T15:57:14.113Z,28.90
2022-07-30T15:59:42.665Z,28.80
2022-07-30T16:02:11.222Z,28.90
2022-07-30T16:04:40.096Z,29.10
2022-07-30T16:07:09.720Z,29.50
2022-07-30T16:09:38.239Z,29.80
2022-07-30T16:12:08.726Z,30.10
2022-07-30T16:14:37.255Z,30.20
2022-07-30T16:17:10.481Z,30.10
2022-07-30T16:19:45.082Z,29.80
2022-07-30T16:22:15.027Z,29.50
2022-07-30T16:24:50.813Z,29.30
2022-07-30T16:27:20.748Z,28.90
2022-07-30T16:29:49.242Z,28.60
2022-07-30T16:32:17.776Z,28.30
2022-07-30T16:34:47.599Z,28.00
2022-07-30T16:37:16.276Z,27.60
2022-07-30T16:39:44.836Z,27.40
2022-07-30T16:42:13.444Z,27.20
2022-07-30T16:44:43.366Z,27.00
2022-07-30T16:47:14.007Z,26.90
2022-07-30T16:49:42.700Z,26.70
2022-07-30T16:52:11.342Z,26.70
2022-07-30T16:54:40.298Z,26.60
2022-07-30T16:57:10.529Z,26.40
2022-07-30T16:59:43.590Z,26.30
2022-07-30T17:02:13.986Z,26.30
2022-07-30T17:04:42.555Z,26.20
2022-07-30T17:07:11.122Z,26.10
2022-07-30T17:09:39.626Z,26.00
2022-07-30T17:12:11.986Z,25.90
2022-07-30T17:14:41.410Z,25.80
2022-07-30T17:17:14.504Z,25.60
2022-07-30T17:19:44.919Z,25.50
2022-07-30T17:22:13.444Z,25.40
2022-07-30T17:24:42.053Z,25.30
2022-07-30T17:27:10.681Z,25.20
2022-07-30T17:29:49.905Z,25.20
2022-07-30T17:32:20.230Z,25.10
2022-07-30T17:34:50.859Z,25.00
2022-07-30T17:37:19.650Z,25.00
2022-07-30T17:40:27.225Z,24.90
2022-07-30T17:42:37.754Z,24.80
2022-07-30T17:45:07.200Z,24.80
2022-07-30T17:47:36.072Z,24.70
2022-07-30T17:50:07.527Z,24.60
2022-07-30T17:52:36.280Z,24.50
2022-07-30T17:55:05.335Z,24.40
2022-07-30T17:57:34.065Z,24.30
2022-07-30T18:00:03.297Z,24.30
2022-07-30T18:02:33.180Z,24.20
2022-07-30T18:05:02.582Z,24.10
2022-07-30T18:07:32.497Z,24.10
2022-07-30T18:10:01.017Z,24.00
2022-07-30T18:12:29.716Z,23.90
2022-07-30T18:14:58.174Z,23.90
2022-07-30T18:17:26.664Z,23.90
2022-07-30T18:19:55.948Z,23.80
2022-07-30T18:22:29.689Z,23.80
2022-07-30T18:25:01.779Z,23.70
2022-07-30T18:27:30.892Z,23.70
2022-07-30T18:29:59.417Z,23.70
2022-07-30T18:32:28.484Z,23.70
2022-07-30T18:34:57.048Z,23.60
2022-07-30T18:37:26.349Z,23.60
2022-07-30T18:40:13.508Z,23.60
2022-07-30T18:42:42.455Z,23.60
2022-07-30T18:45:14.092Z,23.60
2022-07-30T18:47:43.381Z,23.50
2022-07-30T18:50:13.357Z,23.50
2022-07-30T18:52:43.034Z,23.50
2022-07-30T18:55:13.768Z,23.50
2022-07-30T18:57:42.632Z,23.50
2022-07-30T19:00:34.823Z,23.40
2022-07-30T19:03:02.845Z,23.40
2022-07-30T19:05:31.451Z,23.40
2022-07-30T19:07:59.957Z,23.30
2022-07-30T19:10:29.879Z,23.30
2022-07-30T19:12:58.464Z,23.30
2022-07-30T19:15:28.345Z,23.20
2022-07-30T19:17:57.304Z,23.20
2022-07-30T19:20:26.714Z,23.10
2022-07-30T19:23:02.597Z,22.90
2022-07-30T19:25:33.503Z,23.00
2022-07-30T19:28:02.497Z,22.90
2022-07-30T19:30:31.593Z,22.80
2022-07-30T19:33:04.618Z,22.80
2022-07-30T19:35:33.716Z,22.70
2022-07-30T19:38:02.555Z,22.70
2022-07-30T19:40:32.580Z,22.70
2022-07-30T19:43:09.328Z,22.70
2022-07-30T19:45:46.681Z,22.60
2022-07-30T19:48:29.119Z,22.60
2022-07-30T19:51:01.396Z,22.60
2022-07-30T19:53:31.215Z,22.60
2022-07-30T19:56:04.502Z,22.60
2022-07-30T19:58:37.427Z,22.60
2022-07-30T20:01:08.350Z,22.50
2022-07-30T20:03:39.154Z,22.50
2022-07-30T20:06:14.714Z,22.40
2022-07-30T20:08:44.726Z,22.40
2022-07-30T20:11:20.874Z,22.50
2022-07-30T20:14:03.580Z,22.50
2022-07-30T20:16:32.286Z,22.40
2022-07-30T20:19:03.222Z,22.40
2022-07-30T20:24:22.246Z,22.40
2022-07-30T20:26:52.123Z,22.40
2022-07-30T20:29:20.866Z,22.30
2022-07-30T20:31:50.155Z,22.40
2022-07-30T20:34:20.699Z,22.40
2022-07-30T20:36:52.914Z,22.40
2022-07-30T20:39:23.611Z,22.40
2022-07-30T20:42:07.883Z,22.40
2022-07-30T20:44:37.688Z,22.50
2022-07-30T20:47:08.217Z,22.30
2022-07-30T20:49:37.363Z,22.30
2022-07-30T20:52:07.595Z,22.50
2022-07-30T20:54:36.653Z,22.30
2022-07-30T20:57:15.472Z,22.30
2022-07-30T20:59:44.607Z,22.30
2022-07-30T21:02:15.258Z,22.30
2022-07-30T21:04:46.320Z,22.30
2022-07-30T21:07:20.566Z,22.30
2022-07-30T21:09:52.287Z,22.20
2022-07-30T21:12:32.875Z,22.20
2022-07-30T21:15:01.996Z,22.20
2022-07-30T21:17:31.511Z,22.20
2022-07-30T21:20:01.233Z,22.20
2022-07-30T21:22:29.812Z,22.20
2022-07-30T21:24:58.472Z,22.20
2022-07-30T21:27:30.516Z,22.20
2022-07-30T21:29:59.043Z,22.10
2022-07-30T21:32:28.455Z,22.10
2022-07-30T21:34:56.904Z,22.10
2022-07-30T21:37:26.955Z,22.00
2022-07-30T21:40:06.732Z,22.00
2022-07-30T21:42:48.750Z,22.00
2022-07-30T21:45:17.513Z,21.90
2022-07-30T21:47:47.637Z,21.90
2022-07-30T21:50:16.696Z,21.90
2022-07-30T21:52:45.358Z,21.80
2022-07-30T21:55:14.463Z,21.80
2022-07-30T21:57:44.286Z,21.70
2022-07-30T22:00:16.340Z,21.70
2022-07-30T22:02:52.736Z,21.60
2022-07-30T22:05:23.553Z,21.60
2022-07-30T22:07:52.162Z,21.60
2022-07-30T22:10:21.377Z,21.50
2022-07-30T22:12:52.114Z,21.50
2022-07-30T22:15:20.878Z,21.50
2022-07-30T22:18:00.667Z,21.40
2022-07-30T22:20:30.586Z,21.50
2022-07-30T22:23:01.199Z,21.40
2022-07-30T22:25:41.568Z,21.40
2022-07-30T22:28:15.514Z,21.40
2022-07-30T22:30:46.014Z,21.40
2022-07-30T22:33:16.900Z,21.50
2022-07-30T22:35:49.619Z,21.40
2022-07-30T22:38:19.417Z,21.30
2022-07-30T22:40:49.484Z,21.40
2022-07-30T22:43:19.617Z,21.40
2022-07-30T22:45:49.942Z,21.30
2022-07-30T22:48:20.135Z,21.30
2022-07-30T22:50:55.428Z,21.30
2022-07-30T22:54:10.660Z,21.30
2022-07-30T22:56:25.338Z,21.20
2022-07-30T22:58:55.720Z,21.10
2022-07-30T23:01:24.222Z,21.10
2022-07-30T23:03:52.775Z,21.00
2022-07-30T23:06:22.385Z,20.90
2022-07-30T23:08:51.394Z,21.00
2022-07-30T23:11:21.491Z,20.80
2022-07-30T23:12:17.923Z,22.40
2022-07-30T23:13:53.740Z,20.80
2022-07-30T23:16:23.630Z,20.80
2022-07-30T23:18:55.163Z,20.80
2022-07-30T23:21:23.663Z,20.70
2022-07-30T23:23:52.052Z,20.80
2022-07-30T23:26:20.611Z,20.60
2022-07-30T23:28:49.364Z,20.60
2022-07-30T23:31:17.805Z,20.60
2022-07-30T23:33:47.673Z,20.60
2022-07-30T23:36:16.459Z,20.60
2022-07-30T23:38:46.299Z,20.60
2022-07-30T23:41:14.904Z,20.60
2022-07-30T23:43:58.518Z,20.50
2022-07-30T23:46:27.041Z,20.60
2022-07-30T23:48:56.901Z,20.60
2022-07-30T23:51:25.422Z,20.60
2022-07-30T23:54:02.096Z,20.40
2022-07-30T23:56:30.928Z,20.40
2022-07-30T23:58:59.410Z,20.40
